createdAt,value
2023-04-01T00:01:32.602Z,10.10
2023-04-01T00:04:00.355Z,10.10
2023-04-01T00:06:30.214Z,10.10
2023-04-01T00:08:59.894Z,10.10
2023-04-01T00:11:33.319Z,10.10
2023-04-01T00:14:00.651Z,10.10
2023-04-01T00:16:27.899Z,10.10
2023-04-01T00:19:04.313Z,10.10
2023-04-01T00:21:34.605Z,10.10
2023-04-01T00:24:02.082Z,10.10
2023-04-01T00:26:31.978Z,10.10
2023-04-01T00:29:04.479Z,10.10
2023-04-01T00:31:32.048Z,10.10
2023-04-01T00:34:00.153Z,10.10
2023-04-01T00:36:28.622Z,10.10
2023-04-01T00:39:00.507Z,10.10
2023-04-01T00:41:31.588Z,10.10
2023-04-01T00:44:22.564Z,10.10
2023-04-01T00:46:50.646Z,10.10
2023-04-01T00:49:20.024Z,10.10
2023-04-01T00:51:55.083Z,10.10
2023-04-01T00:54:25.648Z,10.10
2023-04-01T00:57:08.051Z,10.10
2023-04-01T00:59:40.983Z,10.10
2023-04-01T01:02:11.709Z,10.10
2023-04-01T01:04:45.108Z,10.10
2023-04-01T01:07:31.107Z,10.10
2023-04-01T01:10:24.877Z,10.10
2023-04-01T01:13:08.434Z,10.10
2023-04-01T01:15:38.320Z,10.20
2023-04-01T01:18:37.228Z,10.20
2023-04-01T01:21:26.382Z,10.20
2023-04-01T01:24:14.829Z,10.20
2023-04-01T01:26:49.376Z,10.20
2023-04-01T01:30:11.120Z,10.20
2023-04-01T01:33:08.700Z,10.20
2023-04-01T01:35:45.155Z,10.20
2023-04-01T01:38:21.677Z,10.20
2023-04-01T01:41:01.500Z,10.20
2023-04-01T01:43:55.950Z,10.20
2023-04-01T01:46:28.554Z,10.20
2023-04-01T01:49:00.906Z,10.20
2023-04-01T01:51:31.943Z,10.20
2023-04-01T01:54:01.371Z,10.20
2023-04-01T01:56:37.976Z,10.20
2023-04-01T01:59:25.891Z,10.20
2023-04-01T02:02:09.772Z,10.20
2023-04-01T02:04:44.855Z,10.20
2023-04-01T02:07:34.251Z,10.20
2023-04-01T02:10:15.470Z,10.20
2023-04-01T02:12:47.958Z,10.10
2023-04-01T02:15:18.103Z,10.10
2023-04-01T02:17:54.370Z,10.10
2023-04-01T02:21:11.321Z,10.00
2023-04-01T02:23:21.331Z,10.00
2023-04-01T02:26:17.463Z,10.00
2023-04-01T02:28:50.481Z,10.00
2023-04-01T02:31:20.419Z,10.00
2023-04-01T02:33:59.141Z,10.00
2023-04-01T02:36:38.055Z,10.00
2023-04-01T02:39:09.692Z,10.00
2023-04-01T02:41:46.282Z,10.00
2023-04-01T02:44:16.846Z,10.00
2023-04-01T02:46:48.896Z,9.90
2023-04-01T02:49:16.282Z,9.90
2023-04-01T02:54:33.738Z,10.00
2023-04-01T02:57:09.301Z,9.90
2023-04-01T02:59:36.600Z,9.90
2023-04-01T03:02:08.921Z,9.90
2023-04-01T03:04:36.299Z,9.90
2023-04-01T03:07:13.764Z,9.90
2023-04-01T03:09:41.280Z,9.90
2023-04-01T03:12:08.755Z,9.90
2023-04-01T03:14:48.590Z,9.90
2023-04-01T03:17:19.040Z,9.90
2023-04-01T03:19:51.689Z,9.90
2023-04-01T03:22:21.929Z,9.90
2023-04-01T03:24:50.088Z,9.90
2023-04-01T03:27:17.511Z,9.90
2023-04-01T03:29:47.616Z,9.80
2023-04-01T03:32:20.661Z,9.90
2023-04-01T03:34:48.013Z,9.90
2023-04-01T03:37:15.668Z,9.90
2023-04-01T03:39:44.739Z,9.90
2023-04-01T03:42:12.204Z,9.80
2023-04-01T03:44:39.468Z,9.80
2023-04-01T03:47:06.845Z,9.80
2023-04-01T03:49:40.232Z,9.80
2023-04-01T03:52:11.757Z,9.80
2023-04-01T03:54:39.133Z,9.80
2023-04-01T03:57:08.563Z,9.80
2023-04-01T03:59:36.314Z,9.80
2023-04-01T04:02:07.047Z,9.80
2023-04-01T04:04:35.094Z,9.80
2023-04-01T04:07:02.644Z,9.80
2023-04-01T04:09:37.908Z,9.80
2023-04-01T04:12:08.872Z,9.80
2023-04-01T04:14:37.740Z,9.80
2023-04-01T04:17:07.221Z,9.70
2023-04-01T04:19:36.425Z,9.80
2023-04-01T04:22:11.146Z,9.70
2023-04-01T04:24:38.770Z,9.70
2023-04-01T04:27:13.889Z,9.70
2023-04-01T04:33:29.347Z,9.70
2023-04-01T04:36:52.190Z,9.70
2023-04-01T04:39:20.494Z,9.70
2023-04-01T04:41:53.473Z,9.70
2023-04-01T04:44:37.327Z,9.60
2023-04-01T04:47:14.351Z,9.60
2023-04-01T04:49:55.029Z,9.60
2023-04-01T04:52:43.779Z,9.60
2023-04-01T04:55:11.373Z,9.60
2023-04-01T04:57:39.873Z,9.70
2023-04-01T05:00:16.141Z,9.70
2023-04-01T05:03:11.724Z,9.70
2023-04-01T05:05:40.630Z,9.60
2023-04-01T05:08:07.888Z,9.60
2023-04-01T05:10:36.232Z,9.70
2023-04-01T05:13:05.062Z,9.60
2023-04-01T05:15:35.339Z,9.70
2023-04-01T05:18:03.097Z,9.70
2023-04-01T05:20:34.204Z,9.70
2023-04-01T05:23:08.173Z,9.70
2023-04-01T05:25:38.537Z,9.70
2023-04-01T05:32:17.320Z,9.70
2023-04-01T05:34:47.090Z,9.80
2023-04-01T05:37:14.354Z,9.80
2023-04-01T05:39:41.674Z,9.80
2023-04-01T05:42:11.279Z,9.80
2023-04-01T05:44:40.109Z,9.80
2023-04-01T05:47:28.404Z,9.80
2023-04-01T05:49:56.687Z,9.80
2023-04-01T05:52:23.821Z,9.90
2023-04-01T05:54:51.582Z,9.90
2023-04-01T05:57:19.324Z,9.90
2023-04-01T05:59:52.237Z,9.90
2023-04-01T06:02:25.982Z,10.00
2023-04-01T06:05:21.220Z,10.00
2023-04-01T06:07:48.758Z,10.00
2023-04-01T06:10:26.084Z,9.90
2023-04-01T06:13:21.928Z,9.90
2023-04-01T06:15:51.866Z,10.00
2023-04-01T06:18:38.932Z,9.90
2023-04-01T06:21:30.929Z,10.00
2023-04-01T06:24:17.955Z,10.00
2023-04-01T06:27:23.911Z,10.00
2023-04-01T06:30:28.164Z,10.00
2023-04-01T06:33:24.371Z,10.10
2023-04-01T06:36:05.490Z,10.10
2023-04-01T06:39:05.182Z,10.10
2023-04-01T06:41:53.633Z,10.10
2023-04-01T06:45:10.546Z,10.10
2023-04-01T06:47:56.168Z,10.20
2023-04-01T06:51:35.569Z,10.20
2023-04-01T06:54:40.980Z,10.30
2023-04-01T06:57:39.397Z,10.20
2023-04-01T07:00:35.320Z,10.30
2023-04-01T07:03:19.905Z,10.20
2023-04-01T07:05:47.243Z,10.20
2023-04-01T07:08:26.220Z,10.20
2023-04-01T07:11:18.420Z,10.20
2023-04-01T07:14:29.911Z,10.30
2023-04-01T07:17:02.973Z,10.30
2023-04-01T07:20:00.436Z,10.30
2023-04-01T07:22:36.514Z,10.30
2023-04-01T07:25:31.625Z,10.40
2023-04-01T07:28:28.521Z,10.40
2023-04-01T07:31:14.191Z,10.40
2023-04-01T07:34:12.069Z,10.50
2023-04-01T07:36:46.781Z,10.50
2023-04-01T07:39:39.026Z,10.50
2023-04-01T07:45:32.705Z,10.60
2023-04-01T07:48:18.506Z,10.60
2023-04-01T07:50:54.871Z,10.70
2023-04-01T07:53:40.901Z,10.70
2023-04-01T07:56:15.776Z,10.90
2023-04-01T07:59:15.797Z,10.90
2023-04-01T08:02:34.343Z,11.00
2023-04-01T08:05:21.189Z,11.00
2023-04-01T08:08:12.596Z,11.00
2023-04-01T08:14:35.227Z,11.00
2023-04-01T08:17:47.005Z,11.10
2023-04-01T08:20:22.870Z,11.20
2023-04-01T08:23:05.172Z,11.30
2023-04-01T08:25:49.162Z,11.30
2023-04-01T08:28:29.350Z,11.30
2023-04-01T08:31:19.619Z,11.30
2023-04-01T08:33:48.716Z,11.40
2023-04-01T08:36:29.593Z,11.30
2023-04-01T08:39:22.368Z,11.30
2023-04-01T08:42:19.947Z,11.30
2023-04-01T08:45:18.780Z,11.30
2023-04-01T08:47:53.607Z,11.30
2023-04-01T08:50:58.807Z,11.20
2023-04-01T08:53:47.512Z,11.20
2023-04-01T08:56:43.695Z,11.20
2023-04-01T08:59:54.212Z,11.20
2023-04-01T09:02:48.705Z,11.30
2023-04-01T09:05:23.858Z,11.20
2023-04-01T09:08:21.879Z,11.20
2023-04-01T09:11:19.184Z,11.20
2023-04-01T09:14:14.703Z,11.30
2023-04-01T09:16:57.643Z,11.30
2023-04-01T09:19:46.354Z,11.30
2023-04-01T09:22:23.296Z,11.30
2023-04-01T09:25:02.264Z,11.30
2023-04-01T09:27:38.974Z,11.40
2023-04-01T09:30:23.390Z,11.40
2023-04-01T09:33:17.513Z,11.50
2023-04-01T09:36:10.915Z,11.40
2023-04-01T09:39:04.883Z,11.50
2023-04-01T09:42:17.574Z,11.50
2023-04-01T09:45:08.729Z,11.50
2023-04-01T09:47:45.411Z,11.50
2023-04-01T09:50:18.436Z,11.40
2023-04-01T09:52:53.522Z,11.40
2023-04-01T09:56:03.039Z,11.30
2023-04-01T09:59:03.229Z,11.30
2023-04-01T10:01:58.279Z,11.20
2023-04-01T10:04:53.357Z,11.10
2023-04-01T10:07:44.942Z,11.10
2023-04-01T10:10:30.936Z,11.10
2023-04-01T10:14:03.348Z,11.10
2023-04-01T10:16:36.514Z,11.10
2023-04-01T10:19:31.159Z,11.10
2023-04-01T10:22:13.429Z,11.20
2023-04-01T10:25:29.023Z,11.20
2023-04-01T10:28:37.953Z,11.20
2023-04-01T10:32:00.254Z,11.20
2023-04-01T10:34:49.440Z,11.30
2023-04-01T10:37:41.141Z,11.30
2023-04-01T10:40:43.582Z,11.30
2023-04-01T10:43:40.825Z,11.40
2023-04-01T10:46:32.910Z,11.60
2023-04-01T10:49:33.990Z,11.80
2023-04-01T10:53:00.545Z,12.10
2023-04-01T10:56:56.127Z,12.20
2023-04-01T11:00:05.382Z,12.10
2023-04-01T11:03:39.920Z,12.00
2023-04-01T11:07:13.736Z,11.90
2023-04-01T11:11:02.957Z,11.90
2023-04-01T11:14:09.710Z,11.90
2023-04-01T11:17:12.600Z,11.90
2023-04-01T11:19:51.201Z,11.90
2023-04-01T11:26:00.130Z,11.90
2023-04-01T11:29:59.196Z,11.80
2023-04-01T11:33:14.398Z,11.70
2023-04-01T11:35:52.217Z,11.60
2023-04-01T11:38:30.832Z,11.60
2023-04-01T11:41:23.174Z,11.50
2023-04-01T11:44:50.565Z,11.40
2023-04-01T11:47:56.084Z,11.30
2023-04-01T11:50:59.817Z,11.30
2023-04-01T11:53:42.304Z,11.30
2023-04-01T11:56:54.574Z,11.20
2023-04-01T11:59:55.709Z,11.10
2023-04-01T12:02:57.347Z,11.10
2023-04-01T12:05:47.136Z,11.10
2023-04-01T12:08:40.094Z,11.10
2023-04-01T12:11:25.558Z,11.10
2023-04-01T12:14:01.142Z,11.10
2023-04-01T12:16:49.198Z,11.10
2023-04-01T12:19:36.351Z,11.10
2023-04-01T12:22:19.808Z,11.10
2023-04-01T12:25:11.205Z,11.10
2023-04-01T12:27:41.418Z,11.10
2023-04-01T12:30:43.876Z,11.10
2023-04-01T12:33:37.995Z,11.10
2023-04-01T12:36:40.830Z,11.10
2023-04-01T12:39:11.049Z,11.20
2023-04-01T12:42:43.595Z,11.20
2023-04-01T12:45:33.388Z,11.20
2023-04-01T12:48:45.065Z,11.30
2023-04-01T12:51:24.240Z,11.40
2023-04-01T12:54:23.361Z,11.40
2023-04-01T12:57:08.016Z,11.50
2023-04-01T12:59:35.368Z,11.50
2023-04-01T13:02:42.506Z,11.60
2023-04-01T13:05:31.672Z,11.60
2023-04-01T13:08:08.120Z,11.70
2023-04-01T13:11:01.716Z,11.60
2023-04-01T13:14:32.290Z,11.70
2023-04-01T13:17:28.581Z,11.80
2023-04-01T13:20:29.657Z,11.90
2023-04-01T13:23:08.677Z,11.90
2023-04-01T13:26:12.885Z,11.90
2023-04-01T13:29:01.872Z,12.00
2023-04-01T13:32:01.965Z,12.10
2023-04-01T13:34:40.990Z,12.20
2023-04-01T13:37:28.450Z,12.20
2023-04-01T13:40:05.629Z,12.20
2023-04-01T13:42:51.239Z,12.10
2023-04-01T13:45:29.895Z,12.10
2023-04-01T13:48:51.334Z,12.00
2023-04-01T13:51:48.677Z,11.80
2023-04-01T13:54:37.770Z,11.60
2023-04-01T13:57:23.673Z,11.60
2023-04-01T14:00:23.728Z,11.50
2023-04-01T14:02:59.141Z,11.50
2023-04-01T14:05:43.053Z,11.50
2023-04-01T14:08:31.679Z,11.50
2023-04-01T14:11:31.484Z,11.60
2023-04-01T14:14:28.103Z,11.60
2023-04-01T14:17:47.530Z,11.70
2023-04-01T14:20:28.965Z,11.70
2023-04-01T14:23:20.016Z,11.80
2023-04-01T14:26:28.305Z,11.80
2023-04-01T14:29:13.530Z,11.90
2023-04-01T14:31:51.927Z,11.90
2023-04-01T14:35:00.273Z,11.90
2023-04-01T14:37:46.325Z,11.90
2023-04-01T14:40:29.763Z,11.90
2023-04-01T14:43:21.086Z,12.00
2023-04-01T14:46:22.863Z,12.00
2023-04-01T14:48:56.280Z,11.90
2023-04-01T14:55:18.722Z,11.80
2023-04-01T14:59:51.625Z,11.80
2023-04-01T15:10:02.721Z,11.70
2023-04-01T15:13:09.029Z,11.70
2023-04-01T15:16:00.069Z,11.70
2023-04-01T15:19:08.524Z,11.80
2023-04-01T15:22:00.936Z,11.90
2023-04-01T15:28:32.582Z,12.00
2023-04-01T15:36:25.539Z,11.90
2023-04-01T15:39:22.132Z,11.80
2023-04-01T15:43:21.141Z,11.80
2023-04-01T15:46:33.100Z,11.70
2023-04-01T15:50:07.499Z,11.60
2023-04-01T15:53:21.760Z,11.60
2023-04-01T16:01:40.865Z,11.60
2023-04-01T16:18:30.973Z,11.40
2023-04-01T16:22:02.598Z,11.40
2023-04-01T16:33:10.434Z,11.40
2023-04-01T16:36:19.963Z,11.40
2023-04-01T16:39:29.423Z,11.40
2023-04-01T16:43:16.296Z,11.30
2023-04-01T16:50:03.755Z,11.30
2023-04-01T16:52:54.790Z,11.10
2023-04-01T16:55:23.758Z,11.10
2023-04-01T17:02:12.575Z,11.00
2023-04-01T17:05:02.940Z,11.00
2023-04-01T17:08:18.670Z,10.90
2023-04-01T17:11:02.376Z,10.90
2023-04-01T17:13:33.843Z,10.90
2023-04-01T17:16:25.827Z,10.80
2023-04-01T17:19:28.568Z,10.80
2023-04-01T17:22:28.864Z,10.80
2023-04-01T17:25:23.170Z,10.70
2023-04-01T17:28:01.661Z,10.70
2023-04-01T17:31:07.305Z,10.60
2023-04-01T17:34:03.269Z,10.60
2023-04-01T17:36:45.998Z,10.60
2023-04-01T17:39:22.297Z,10.50
2023-04-01T17:41:54.657Z,10.40
2023-04-01T17:44:39.553Z,10.40
2023-04-01T17:47:47.073Z,10.30
2023-04-01T17:50:41.887Z,10.30
2023-04-01T17:53:32.726Z,10.30
2023-04-01T17:56:33.305Z,10.30
2023-04-01T17:59:13.877Z,10.20
2023-04-01T18:01:51.062Z,10.20
2023-04-01T18:04:33.584Z,10.20
2023-04-01T18:07:12.873Z,10.20
2023-04-01T18:10:20.737Z,10.10
2023-04-01T18:13:08.186Z,10.10
2023-04-01T18:16:10.788Z,10.10
2023-04-01T18:19:07.113Z,10.00
2023-04-01T18:21:53.228Z,9.90
2023-04-01T18:24:25.452Z,9.90
2023-04-01T18:27:05.297Z,9.90
2023-04-01T18:29:55.690Z,9.80
2023-04-01T18:32:59.541Z,9.80
2023-04-01T18:35:53.146Z,9.80
2023-04-01T18:38:46.754Z,9.80
2023-04-01T18:41:39.517Z,9.70
2023-04-01T18:44:12.904Z,9.70
2023-04-01T19:06:52.483Z,9.60
2023-04-01T19:18:38.821Z,9.50
2023-04-01T19:22:23.108Z,9.50
2023-04-01T20:26:35.494Z,8.80
2023-04-01T20:34:33.915Z,8.70
2023-04-01T20:46:00.134Z,8.60
2023-04-01T20:49:32.358Z,8.50
2023-04-01T20:52:23.528Z,8.50
2023-04-01T21:00:50.577Z,8.40
2023-04-01T21:07:10.826Z,8.30
2023-04-01T21:17:21.058Z,8.20
2023-04-01T21:21:02.113Z,8.20
2023-04-01T21:23:50.428Z,8.20
2023-04-01T21:26:54.108Z,8.20
2023-04-01T21:29:32.776Z,8.20
2023-04-01T21:32:39.575Z,8.20
2023-04-01T21:35:41.235Z,8.20
2023-04-01T21:38:11.283Z,8.20
2023-04-01T21:41:12.169Z,8.20
2023-04-01T21:44:14.134Z,8.10
2023-04-01T21:47:12.683Z,8.10
2023-04-01T21:50:10.276Z,8.00
2023-04-01T21:53:18.256Z,8.00
2023-04-01T21:55:49.263Z,8.00
2023-04-01T21:58:40.077Z,7.90
2023-04-01T22:01:29.249Z,8.00
2023-04-01T22:03:56.558Z,8.00
2023-04-01T22:06:46.983Z,7.90
2023-04-01T22:09:19.364Z,8.00
2023-04-01T22:11:48.584Z,7.90
2023-04-01T22:14:49.465Z,7.90
2023-04-01T22:17:31.257Z,7.90
2023-04-01T22:20:12.784Z,7.90
2023-04-01T22:23:01.075Z,7.80
2023-04-01T22:25:31.939Z,7.80
2023-04-01T22:28:22.254Z,7.80
2023-04-01T22:30:55.164Z,7.80
2023-04-01T22:33:35.450Z,7.80
2023-04-01T22:36:12.721Z,7.80
2023-04-01T22:38:45.598Z,7.80
2023-04-01T22:41:17.913Z,7.80
2023-04-01T22:43:45.502Z,7.80
2023-04-01T22:46:28.650Z,7.70
2023-04-01T22:49:10.621Z,7.70
2023-04-01T22:52:03.171Z,7.70
2023-04-01T22:55:01.540Z,7.70
2023-04-01T22:57:36.238Z,7.70
2023-04-01T23:00:11.024Z,7.60
2023-04-01T23:02:41.877Z,7.60
2023-04-01T23:05:18.358Z,7.60
2023-04-01T23:08:13.323Z,7.60
2023-04-01T23:10:55.354Z,7.60
2023-04-01T23:13:34.497Z,7.50
2023-04-01T23:16:02.700Z,7.50
2023-04-01T23:18:46.299Z,7.50
2023-04-01T23:21:51.744Z,7.50
2023-04-01T23:24:21.480Z,7.50
2023-04-01T23:27:00.151Z,7.50
2023-04-01T23:29:27.667Z,7.50
2023-04-01T23:32:23.329Z,7.50
2023-04-01T23:34:59.369Z,7.50
2023-04-01T23:37:30.530Z,7.50
2023-04-01T23:40:02.065Z,7.40
2023-04-01T23:42:32.622Z,7.40
2023-04-01T23:45:22.591Z,7.40
2023-04-01T23:47:51.781Z,7.30
2023-04-01T23:50:22.070Z,7.30
2023-04-01T23:52:59.584Z,7.30
2023-04-01T23:55:31.856Z,7.30
2023-04-01T23:58:08.392Z,7.20
